sensor_id;sensor_type;location;lat;lon;timestamp;temperature;humidity
54461;DHT22;40371;49.414;11.010;2022-12-24T00:02:10;11.30;99.90
54461;DHT22;40371;49.414;11.010;2022-12-24T00:04:36;11.30;99.90
54461;DHT22;40371;49.414;11.010;2022-12-24T00:07:02;11.30;99.90
54461;DHT22;40371;49.414;11.010;2022-12-24T00:09:27;11.30;99.90
54461;DHT22;40371;49.414;11.010;2022-12-24T00:11:53;11.30;99.90
54461;DHT22;40371;49.414;11.010;2022-12-24T00:14:18;11.30;99.90
54461;DHT22;40371;49.414;11.010;2022-12-24T00:16:44;11.30;99.90
54461;DHT22;40371;49.414;11.010;2022-12-24T00:19:09;11.20;99.90
54461;DHT22;40371;49.414;11.010;2022-12-24T00:21:35;11.20;99.90
54461;DHT22;40371;49.414;11.010;2022-12-24T00:24:01;11.20;99.90
54461;DHT22;40371;49.414;11.010;2022-12-24T00:26:29;11.20;99.90
54461;DHT22;40371;49.414;11.010;2022-12-24T00:28:54;11.20;99.90
54461;DHT22;40371;49.414;11.010;2022-12-24T00:31:20;11.20;99.90
54461;DHT22;40371;49.414;11.010;2022-12-24T00:33:46;11.20;99.90
54461;DHT22;40371;49.414;11.010;2022-12-24T00:36:12;11.30;99.90
54461;DHT22;40371;49.414;11.010;2022-12-24T00:38:38;11.30;99.90
54461;DHT22;40371;49.414;11.010;2022-12-24T00:41:06;11.30;99.90
54461;DHT22;40371;49.414;11.010;2022-12-24T00:44:05;11.30;99.90
54461;DHT22;40371;49.414;11.010;2022-12-24T00:46:32;11.30;99.90
54461;DHT22;40371;49.414;11.010;2022-12-24T00:48:58;11.30;99.90
54461;DHT22;40371;49.414;11.010;2022-12-24T00:51:25;11.20;99.90
54461;DHT22;40371;49.414;11.010;2022-12-24T00:53:51;11.20;99.90
54461;DHT22;40371;49.414;11.010;2022-12-24T00:56:17;11.20;99.90
54461;DHT22;40371;49.414;11.010;2022-12-24T00:58:42;11.20;99.90
54461;DHT22;40371;49.414;11.010;2022-12-24T01:01:08;11.10;99.90
54461;DHT22;40371;49.414;11.010;2022-12-24T01:03:33;11.10;99.90
54461;DHT22;40371;49.414;11.010;2022-12-24T01:06:11;11.20;99.90
54461;DHT22;40371;49.414;11.010;2022-12-24T01:08:37;11.10;99.90
54461;DHT22;40371;49.414;11.010;2022-12-24T01:11:04;11.00;99.90
54461;DHT22;40371;49.414;11.010;2022-12-24T01:13:30;11.00;99.90
54461;DHT22;40371;49.414;11.010;2022-12-24T01:15:56;10.90;99.90
54461;DHT22;40371;49.414;11.010;2022-12-24T01:18:22;10.90;99.90
54461;DHT22;40371;49.414;11.010;2022-12-24T01:20:59;10.90;99.90
54461;DHT22;40371;49.414;11.010;2022-12-24T01:23:26;10.90;99.90
54461;DHT22;40371;49.414;11.010;2022-12-24T01:25:52;10.90;99.90
54461;DHT22;40371;49.414;11.010;2022-12-24T01:28:18;10.90;99.90
54461;DHT22;40371;49.414;11.010;2022-12-24T01:30:44;10.90;99.90
54461;DHT22;40371;49.414;11.010;2022-12-24T01:33:10;10.90;99.90
54461;DHT22;40371;49.414;11.010;2022-12-24T01:35:39;10.90;99.90
54461;DHT22;40371;49.414;11.010;2022-12-24T01:38:05;10.80;99.90
54461;DHT22;40371;49.414;11.010;2022-12-24T01:40:30;10.80;99.90
54461;DHT22;40371;49.414;11.010;2022-12-24T01:43:17;10.70;99.90
54461;DHT22;40371;49.414;11.010;2022-12-24T01:45:51;10.70;99.90
54461;DHT22;40371;49.414;11.010;2022-12-24T01:53:51;10.60;99.90
54461;DHT22;40371;49.414;11.010;2022-12-24T01:56:17;10.50;99.90
54461;DHT22;40371;49.414;11.010;2022-12-24T01:58:46;10.50;99.90
54461;DHT22;40371;49.414;11.010;2022-12-24T02:01:12;10.50;99.90
54461;DHT22;40371;49.414;11.010;2022-12-24T02:03:38;10.40;99.90
54461;DHT22;40371;49.414;11.010;2022-12-24T02:06:04;10.40;99.90
54461;DHT22;40371;49.414;11.010;2022-12-24T02:08:30;10.50;99.90
54461;DHT22;40371;49.414;11.010;2022-12-24T02:11:11;10.60;99.90
54461;DHT22;40371;49.414;11.010;2022-12-24T02:13:37;10.60;99.90
54461;DHT22;40371;49.414;11.010;2022-12-24T02:19:18;10.60;99.90
54461;DHT22;40371;49.414;11.010;2022-12-24T02:22:06;10.60;99.90
54461;DHT22;40371;49.414;11.010;2022-12-24T02:24:49;10.60;99.90
54461;DHT22;40371;49.414;11.010;2022-12-24T02:29:56;10.60;99.90
54461;DHT22;40371;49.414;11.010;2022-12-24T02:35:42;10.60;99.90
54461;DHT22;40371;49.414;11.010;2022-12-24T02:41:04;10.60;99.90
54461;DHT22;40371;49.414;11.010;2022-12-24T02:43:35;10.60;99.90
54461;DHT22;40371;49.414;11.010;2022-12-24T02:46:06;10.60;99.90
54461;DHT22;40371;49.414;11.010;2022-12-24T02:48:35;10.50;99.90
54461;DHT22;40371;49.414;11.010;2022-12-24T02:51:07;10.50;99.90
54461;DHT22;40371;49.414;11.010;2022-12-24T02:53:34;10.50;99.90
54461;DHT22;40371;49.414;11.010;2022-12-24T02:59:50;10.30;99.90
54461;DHT22;40371;49.414;11.010;2022-12-24T03:04:51;10.20;99.90
54461;DHT22;40371;49.414;11.010;2022-12-24T03:07:26;10.10;99.90
54461;DHT22;40371;49.414;11.010;2022-12-24T03:13:03;10.00;99.90
54461;DHT22;40371;49.414;11.010;2022-12-24T03:15:31;9.90;99.90
54461;DHT22;40371;49.414;11.010;2022-12-24T03:17:59;9.80;99.90
54461;DHT22;40371;49.414;11.010;2022-12-24T03:20:31;9.80;99.90
54461;DHT22;40371;49.414;11.010;2022-12-24T03:22:59;9.80;99.90
54461;DHT22;40371;49.414;11.010;2022-12-24T03:25:25;9.80;99.90
54461;DHT22;40371;49.414;11.010;2022-12-24T03:27:51;9.80;99.90
54461;DHT22;40371;49.414;11.010;2022-12-24T03:30:18;9.80;99.90
54461;DHT22;40371;49.414;11.010;2022-12-24T03:32:46;9.80;99.90
54461;DHT22;40371;49.414;11.010;2022-12-24T03:35:11;9.80;99.90
54461;DHT22;40371;49.414;11.010;2022-12-24T03:37:37;9.80;99.90
54461;DHT22;40371;49.414;11.010;2022-12-24T03:40:05;9.80;99.90
54461;DHT22;40371;49.414;11.010;2022-12-24T03:42:30;9.80;99.90
54461;DHT22;40371;49.414;11.010;2022-12-24T03:44:56;9.80;99.90
54461;DHT22;40371;49.414;11.010;2022-12-24T03:47:22;9.80;99.90
54461;DHT22;40371;49.414;11.010;2022-12-24T03:49:47;9.80;99.90
54461;DHT22;40371;49.414;11.010;2022-12-24T03:52:13;9.80;99.90
54461;DHT22;40371;49.414;11.010;2022-12-24T03:54:38;9.80;99.90
54461;DHT22;40371;49.414;11.010;2022-12-24T03:57:04;9.80;99.90
54461;DHT22;40371;49.414;11.010;2022-12-24T03:59:30;9.80;99.90
54461;DHT22;40371;49.414;11.010;2022-12-24T04:01:55;9.80;99.90
54461;DHT22;40371;49.414;11.010;2022-12-24T04:04:21;9.70;99.90
54461;DHT22;40371;49.414;11.010;2022-12-24T04:06:46;9.70;99.90
54461;DHT22;40371;49.414;11.010;2022-12-24T04:09:12;9.80;99.90
54461;DHT22;40371;49.414;11.010;2022-12-24T04:11:38;9.80;99.90
54461;DHT22;40371;49.414;11.010;2022-12-24T04:14:03;9.80;99.90
54461;DHT22;40371;49.414;11.010;2022-12-24T04:16:29;9.90;99.90
54461;DHT22;40371;49.414;11.010;2022-12-24T04:18:54;9.80;99.90
54461;DHT22;40371;49.414;11.010;2022-12-24T04:21:20;9.80;99.90
54461;DHT22;40371;49.414;11.010;2022-12-24T04:23:46;9.80;99.90
54461;DHT22;40371;49.414;11.010;2022-12-24T04:26:12;9.90;99.90
54461;DHT22;40371;49.414;11.010;2022-12-24T04:28:39;9.80;99.90
54461;DHT22;40371;49.414;11.010;2022-12-24T04:31:08;9.80;99.90
54461;DHT22;40371;49.414;11.010;2022-12-24T04:33:34;9.80;99.90
54461;DHT22;40371;49.414;11.010;2022-12-24T04:36:02;9.80;99.90
54461;DHT22;40371;49.414;11.010;2022-12-24T04:38:28;9.80;99.90
54461;DHT22;40371;49.414;11.010;2022-12-24T04:41:02;9.80;99.90
54461;DHT22;40371;49.414;11.010;2022-12-24T04:43:29;9.80;99.90
54461;DHT22;40371;49.414;11.010;2022-12-24T04:45:55;9.70;99.90
54461;DHT22;40371;49.414;11.010;2022-12-24T04:48:21;9.70;99.90
54461;DHT22;40371;49.414;11.010;2022-12-24T04:50:47;9.70;99.90
54461;DHT22;40371;49.414;11.010;2022-12-24T04:53:13;9.70;99.90
54461;DHT22;40371;49.414;11.010;2022-12-24T04:55:43;9.70;99.90
54461;DHT22;40371;49.414;11.010;2022-12-24T04:58:09;9.70;99.90
54461;DHT22;40371;49.414;11.010;2022-12-24T05:00:35;9.70;99.90
54461;DHT22;40371;49.414;11.010;2022-12-24T05:03:01;9.70;99.90
54461;DHT22;40371;49.414;11.010;2022-12-24T05:05:26;9.70;99.90
54461;DHT22;40371;49.414;11.010;2022-12-24T05:07:52;9.70;99.90
54461;DHT22;40371;49.414;11.010;2022-12-24T05:10:18;9.70;99.90
54461;DHT22;40371;49.414;11.010;2022-12-24T05:12:44;9.70;99.90
54461;DHT22;40371;49.414;11.010;2022-12-24T05:15:10;9.70;99.90
54461;DHT22;40371;49.414;11.010;2022-12-24T05:17:35;9.70;99.90
54461;DHT22;40371;49.414;11.010;2022-12-24T05:20:01;9.80;99.90
54461;DHT22;40371;49.414;11.010;2022-12-24T05:22:26;9.80;99.90
54461;DHT22;40371;49.414;11.010;2022-12-24T05:25:10;9.80;99.90
54461;DHT22;40371;49.414;11.010;2022-12-24T05:27:55;9.80;99.90
54461;DHT22;40371;49.414;11.010;2022-12-24T05:30:20;9.80;99.90
54461;DHT22;40371;49.414;11.010;2022-12-24T05:32:46;9.80;99.90
54461;DHT22;40371;49.414;11.010;2022-12-24T05:35:11;9.80;99.90
54461;DHT22;40371;49.414;11.010;2022-12-24T05:37:38;9.90;99.90
54461;DHT22;40371;49.414;11.010;2022-12-24T05:40:04;9.90;99.90
54461;DHT22;40371;49.414;11.010;2022-12-24T05:42:29;9.90;99.90
54461;DHT22;40371;49.414;11.010;2022-12-24T05:44:55;9.80;99.90
54461;DHT22;40371;49.414;11.010;2022-12-24T05:47:20;9.80;99.90
54461;DHT22;40371;49.414;11.010;2022-12-24T05:49:46;9.80;99.90
54461;DHT22;40371;49.414;11.010;2022-12-24T05:52:12;9.70;99.90
54461;DHT22;40371;49.414;11.010;2022-12-24T05:54:37;9.70;99.90
54461;DHT22;40371;49.414;11.010;2022-12-24T05:57:03;9.70;99.90
54461;DHT22;40371;49.414;11.010;2022-12-24T05:59:29;9.80;99.90
54461;DHT22;40371;49.414;11.010;2022-12-24T06:01:54;9.80;99.90
54461;DHT22;40371;49.414;11.010;2022-12-24T06:04:20;9.80;99.90
54461;DHT22;40371;49.414;11.010;2022-12-24T06:06:45;9.90;99.90
54461;DHT22;40371;49.414;11.010;2022-12-24T06:09:11;9.80;99.90
54461;DHT22;40371;49.414;11.010;2022-12-24T06:11:36;9.80;99.90
54461;DHT22;40371;49.414;11.010;2022-12-24T06:14:02;9.80;99.90
54461;DHT22;40371;49.414;11.010;2022-12-24T06:16:28;9.90;99.90
54461;DHT22;40371;49.414;11.010;2022-12-24T06:18:53;9.90;99.90
54461;DHT22;40371;49.414;11.010;2022-12-24T06:21:19;9.90;99.90
54461;DHT22;40371;49.414;11.010;2022-12-24T06:23:45;9.90;99.90
54461;DHT22;40371;49.414;11.010;2022-12-24T06:26:13;9.90;99.90
54461;DHT22;40371;49.414;11.010;2022-12-24T06:28:40;9.90;99.90
54461;DHT22;40371;49.414;11.010;2022-12-24T06:31:08;9.90;99.90
54461;DHT22;40371;49.414;11.010;2022-12-24T06:33:35;9.90;99.90
54461;DHT22;40371;49.414;11.010;2022-12-24T06:36:00;9.90;99.90
54461;DHT22;40371;49.414;11.010;2022-12-24T06:38:28;9.90;99.90
54461;DHT22;40371;49.414;11.010;2022-12-24T06:40:53;9.90;99.90
54461;DHT22;40371;49.414;11.010;2022-12-24T06:43:20;10.00;99.90
54461;DHT22;40371;49.414;11.010;2022-12-24T06:45:46;10.00;99.90
54461;DHT22;40371;49.414;11.010;2022-12-24T06:48:13;10.00;99.90
54461;DHT22;40371;49.414;11.010;2022-12-24T06:50:39;10.00;99.90
54461;DHT22;40371;49.414;11.010;2022-12-24T06:53:05;10.00;99.90
54461;DHT22;40371;49.414;11.010;2022-12-24T06:55:31;10.00;99.90
54461;DHT22;40371;49.414;11.010;2022-12-24T06:57:56;10.00;99.90
54461;DHT22;40371;49.414;11.010;2022-12-24T07:00:22;10.00;99.90
54461;DHT22;40371;49.414;11.010;2022-12-24T07:02:47;10.00;99.90
54461;DHT22;40371;49.414;11.010;2022-12-24T07:05:13;10.00;99.90
54461;DHT22;40371;49.414;11.010;2022-12-24T07:07:41;10.00;99.90
54461;DHT22;40371;49.414;11.010;2022-12-24T07:10:10;10.00;99.90
54461;DHT22;40371;49.414;11.010;2022-12-24T07:12:36;10.00;99.90
54461;DHT22;40371;49.414;11.010;2022-12-24T07:15:03;10.00;99.90
54461;DHT22;40371;49.414;11.010;2022-12-24T07:17:28;9.90;99.90
54461;DHT22;40371;49.414;11.010;2022-12-24T07:19:54;9.90;99.90
54461;DHT22;40371;49.414;11.010;2022-12-24T07:22:19;9.90;99.90
54461;DHT22;40371;49.414;11.010;2022-12-24T07:24:45;9.90;99.90
54461;DHT22;40371;49.414;11.010;2022-12-24T07:27:11;9.90;99.90
54461;DHT22;40371;49.414;11.010;2022-12-24T07:29:36;9.90;99.90
54461;DHT22;40371;49.414;11.010;2022-12-24T07:32:02;9.90;99.90
54461;DHT22;40371;49.414;11.010;2022-12-24T07:34:28;9.90;99.90
54461;DHT22;40371;49.414;11.010;2022-12-24T07:36:53;9.90;99.90
54461;DHT22;40371;49.414;11.010;2022-12-24T07:39:19;9.90;99.90
54461;DHT22;40371;49.414;11.010;2022-12-24T07:41:44;9.90;99.90
54461;DHT22;40371;49.414;11.010;2022-12-24T07:44:12;9.90;99.90
54461;DHT22;40371;49.414;11.010;2022-12-24T07:46:39;9.90;99.90
54461;DHT22;40371;49.414;11.010;2022-12-24T07:49:04;9.90;99.90
54461;DHT22;40371;49.414;11.010;2022-12-24T07:51:30;10.00;99.90
54461;DHT22;40371;49.414;11.010;2022-12-24T07:53:56;9.90;99.90
54461;DHT22;40371;49.414;11.010;2022-12-24T07:56:21;9.80;99.90
54461;DHT22;40371;49.414;11.010;2022-12-24T07:58:49;9.90;99.90
54461;DHT22;40371;49.414;11.010;2022-12-24T08:01:14;9.80;99.90
54461;DHT22;40371;49.414;11.010;2022-12-24T08:03:40;9.80;99.90
54461;DHT22;40371;49.414;11.010;2022-12-24T08:06:06;9.80;99.90
54461;DHT22;40371;49.414;11.010;2022-12-24T08:08:32;9.80;99.90
54461;DHT22;40371;49.414;11.010;2022-12-24T08:11:02;9.90;99.90
54461;DHT22;40371;49.414;11.010;2022-12-24T08:13:28;9.90;99.90
54461;DHT22;40371;49.414;11.010;2022-12-24T08:15:54;10.00;99.90
54461;DHT22;40371;49.414;11.010;2022-12-24T08:18:20;10.10;99.90
54461;DHT22;40371;49.414;11.010;2022-12-24T08:20:46;10.30;99.90
54461;DHT22;40371;49.414;11.010;2022-12-24T08:23:11;10.20;99.90
54461;DHT22;40371;49.414;11.010;2022-12-24T08:25:41;10.30;99.90
54461;DHT22;40371;49.414;11.010;2022-12-24T08:28:07;10.30;99.90
54461;DHT22;40371;49.414;11.010;2022-12-24T08:30:33;10.30;99.90
54461;DHT22;40371;49.414;11.010;2022-12-24T08:32:58;10.30;99.90
54461;DHT22;40371;49.414;11.010;2022-12-24T08:35:24;10.20;99.90
54461;DHT22;40371;49.414;11.010;2022-12-24T08:37:49;10.20;99.90
54461;DHT22;40371;49.414;11.010;2022-12-24T08:40:15;10.20;99.90
54461;DHT22;40371;49.414;11.010;2022-12-24T08:42:41;10.20;99.90
54461;DHT22;40371;49.414;11.010;2022-12-24T08:45:06;10.20;99.90
54461;DHT22;40371;49.414;11.010;2022-12-24T08:47:32;10.30;99.90
54461;DHT22;40371;49.414;11.010;2022-12-24T08:49:58;10.30;99.90
54461;DHT22;40371;49.414;11.010;2022-12-24T08:52:23;10.30;99.90
54461;DHT22;40371;49.414;11.010;2022-12-24T08:54:49;10.30;99.90
54461;DHT22;40371;49.414;11.010;2022-12-24T08:57:14;10.30;99.90
54461;DHT22;40371;49.414;11.010;2022-12-24T08:59:40;10.30;99.90
54461;DHT22;40371;49.414;11.010;2022-12-24T09:02:07;10.30;99.90
54461;DHT22;40371;49.414;11.010;2022-12-24T09:04:32;10.40;99.90
54461;DHT22;40371;49.414;11.010;2022-12-24T09:06:58;10.40;99.90
54461;DHT22;40371;49.414;11.010;2022-12-24T09:09:23;10.30;99.90
54461;DHT22;40371;49.414;11.010;2022-12-24T09:11:49;10.40;99.90
54461;DHT22;40371;49.414;11.010;2022-12-24T09:14:15;10.40;99.90
54461;DHT22;40371;49.414;11.010;2022-12-24T09:16:40;10.40;99.90
54461;DHT22;40371;49.414;11.010;2022-12-24T09:19:06;10.80;99.90
54461;DHT22;40371;49.414;11.010;2022-12-24T09:21:31;10.60;99.90
54461;DHT22;40371;49.414;11.010;2022-12-24T09:23:57;11.20;99.90
54461;DHT22;40371;49.414;11.010;2022-12-24T09:26:26;11.40;99.90
54461;DHT22;40371;49.414;11.010;2022-12-24T09:28:52;11.20;99.90
54461;DHT22;40371;49.414;11.010;2022-12-24T09:31:19;11.00;99.90
54461;DHT22;40371;49.414;11.010;2022-12-24T09:33:46;11.00;99.90
54461;DHT22;40371;49.414;11.010;2022-12-24T09:36:12;11.10;99.90
54461;DHT22;40371;49.414;11.010;2022-12-24T09:38:38;11.20;99.90
54461;DHT22;40371;49.414;11.010;2022-12-24T09:43:53;11.30;99.90
54461;DHT22;40371;49.414;11.010;2022-12-24T09:46:22;11.60;99.90
54461;DHT22;40371;49.414;11.010;2022-12-24T09:48:54;11.40;99.90
54461;DHT22;40371;49.414;11.010;2022-12-24T09:51:50;11.40;99.90
54461;DHT22;40371;49.414;11.010;2022-12-24T09:54:43;11.30;99.90
54461;DHT22;40371;49.414;11.010;2022-12-24T09:57:19;11.10;99.90
54461;DHT22;40371;49.414;11.010;2022-12-24T09:59:48;11.00;99.90
54461;DHT22;40371;49.414;11.010;2022-12-24T10:02:16;11.00;99.90
54461;DHT22;40371;49.414;11.010;2022-12-24T10:04:43;11.00;99.90
54461;DHT22;40371;49.414;11.010;2022-12-24T10:10:39;11.00;99.90
54461;DHT22;40371;49.414;11.010;2022-12-24T10:13:09;11.00;99.90
54461;DHT22;40371;49.414;11.010;2022-12-24T10:15:44;11.00;99.90
54461;DHT22;40371;49.414;11.010;2022-12-24T10:22:04;11.10;99.90
54461;DHT22;40371;49.414;11.010;2022-12-24T10:26:47;11.40;99.90
54461;DHT22;40371;49.414;11.010;2022-12-24T10:29:26;11.50;99.90
54461;DHT22;40371;49.414;11.010;2022-12-24T10:34:29;11.60;99.90
54461;DHT22;40371;49.414;11.010;2022-12-24T10:36:57;11.70;99.90
54461;DHT22;40371;49.414;11.010;2022-12-24T10:39:24;11.80;99.90
54461;DHT22;40371;49.414;11.010;2022-12-24T10:41:52;11.70;99.90
54461;DHT22;40371;49.414;11.010;2022-12-24T10:44:21;11.80;99.90
54461;DHT22;40371;49.414;11.010;2022-12-24T10:46:48;11.80;99.90
54461;DHT22;40371;49.414;11.010;2022-12-24T10:52:11;12.00;99.90
54461;DHT22;40371;49.414;11.010;2022-12-24T10:55:03;12.10;99.90
54461;DHT22;40371;49.414;11.010;2022-12-24T10:57:30;12.10;99.90
54461;DHT22;40371;49.414;11.010;2022-12-24T10:59:56;11.90;99.90
54461;DHT22;40371;49.414;11.010;2022-12-24T11:02:33;12.10;99.90
54461;DHT22;40371;49.414;11.010;2022-12-24T11:05:01;12.10;99.90
54461;DHT22;40371;49.414;11.010;2022-12-24T11:07:28;12.10;99.90
54461;DHT22;40371;49.414;11.010;2022-12-24T11:10:05;12.00;99.90
54461;DHT22;40371;49.414;11.010;2022-12-24T11:12:37;11.90;99.90
54461;DHT22;40371;49.414;11.010;2022-12-24T11:15:05;11.90;99.90
54461;DHT22;40371;49.414;11.010;2022-12-24T11:17:32;11.90;99.90
54461;DHT22;40371;49.414;11.010;2022-12-24T11:19:59;12.00;99.90
54461;DHT22;40371;49.414;11.010;2022-12-24T11:22:29;12.70;99.90
54461;DHT22;40371;49.414;11.010;2022-12-24T11:25:17;13.50;99.90
54461;DHT22;40371;49.414;11.010;2022-12-24T11:27:45;13.30;99.90
54461;DHT22;40371;49.414;11.010;2022-12-24T11:32:40;12.90;99.90
54461;DHT22;40371;49.414;11.010;2022-12-24T11:35:11;12.80;99.90
54461;DHT22;40371;49.414;11.010;2022-12-24T11:37:39;12.90;99.90
54461;DHT22;40371;49.414;11.010;2022-12-24T11:40:18;13.20;99.90
54461;DHT22;40371;49.414;11.010;2022-12-24T11:42:45;13.10;99.90
54461;DHT22;40371;49.414;11.010;2022-12-24T11:45:22;13.10;99.90
54461;DHT22;40371;49.414;11.010;2022-12-24T11:47:49;13.10;99.90
54461;DHT22;40371;49.414;11.010;2022-12-24T11:52:50;12.80;99.90
54461;DHT22;40371;49.414;11.010;2022-12-24T11:58:10;12.90;99.90
54461;DHT22;40371;49.414;11.010;2022-12-24T12:00:40;12.80;99.90
54461;DHT22;40371;49.414;11.010;2022-12-24T12:05:58;13.10;99.90
54461;DHT22;40371;49.414;11.010;2022-12-24T12:08:27;13.40;99.90
54461;DHT22;40371;49.414;11.010;2022-12-24T12:10:53;13.10;99.90
54461;DHT22;40371;49.414;11.010;2022-12-24T12:13:31;13.10;99.90
54461;DHT22;40371;49.414;11.010;2022-12-24T12:16:13;13.00;99.90
54461;DHT22;40371;49.414;11.010;2022-12-24T12:18:45;13.20;99.90
54461;DHT22;40371;49.414;11.010;2022-12-24T12:21:20;13.00;99.90
54461;DHT22;40371;49.414;11.010;2022-12-24T12:23:51;13.10;99.90
54461;DHT22;40371;49.414;11.010;2022-12-24T12:26:25;13.00;99.90
54461;DHT22;40371;49.414;11.010;2022-12-24T12:28:59;13.00;99.90
54461;DHT22;40371;49.414;11.010;2022-12-24T12:31:35;12.90;99.90
54461;DHT22;40371;49.414;11.010;2022-12-24T12:36:56;12.80;99.90
54461;DHT22;40371;49.414;11.010;2022-12-24T12:39:23;12.90;99.90
54461;DHT22;40371;49.414;11.010;2022-12-24T12:42:00;12.90;99.90
54461;DHT22;40371;49.414;11.010;2022-12-24T12:47:44;12.80;99.90
54461;DHT22;40371;49.414;11.010;2022-12-24T12:50:43;13.00;99.90
54461;DHT22;40371;49.414;11.010;2022-12-24T12:58:46;12.90;99.90
54461;DHT22;40371;49.414;11.010;2022-12-24T13:01:24;12.90;99.90
54461;DHT22;40371;49.414;11.010;2022-12-24T13:04:10;12.70;99.90
54461;DHT22;40371;49.414;11.010;2022-12-24T13:09:29;12.70;99.90
54461;DHT22;40371;49.414;11.010;2022-12-24T13:12:27;12.70;99.90
54461;DHT22;40371;49.414;11.010;2022-12-24T13:15:04;12.80;99.90
54461;DHT22;40371;49.414;11.010;2022-12-24T13:20:30;12.70;99.90
54461;DHT22;40371;49.414;11.010;2022-12-24T13:22:58;12.60;99.90
54461;DHT22;40371;49.414;11.010;2022-12-24T13:25:43;12.60;99.90
54461;DHT22;40371;49.414;11.010;2022-12-24T13:36:05;12.20;99.90
54461;DHT22;40371;49.414;11.010;2022-12-24T13:38:54;12.10;99.90
54461;DHT22;40371;49.414;11.010;2022-12-24T13:46:57;12.00;99.90
54461;DHT22;40371;49.414;11.010;2022-12-24T13:49:28;12.00;99.90
54461;DHT22;40371;49.414;11.010;2022-12-24T13:52:22;11.90;99.90
54461;DHT22;40371;49.414;11.010;2022-12-24T13:54:58;12.00;99.90
54461;DHT22;40371;49.414;11.010;2022-12-24T13:57:44;11.90;99.90
54461;DHT22;40371;49.414;11.010;2022-12-24T14:06:00;12.10;99.90
54461;DHT22;40371;49.414;11.010;2022-12-24T14:08:54;12.10;99.90
54461;DHT22;40371;49.414;11.010;2022-12-24T14:11:23;12.00;99.90
54461;DHT22;40371;49.414;11.010;2022-12-24T14:13:52;12.00;99.90
54461;DHT22;40371;49.414;11.010;2022-12-24T14:16:23;11.90;99.90
54461;DHT22;40371;49.414;11.010;2022-12-24T14:19:01;11.90;99.90
54461;DHT22;40371;49.414;11.010;2022-12-24T14:21:36;11.80;99.90
54461;DHT22;40371;49.414;11.010;2022-12-24T14:24:18;11.70;99.90
54461;DHT22;40371;49.414;11.010;2022-12-24T14:26:57;11.60;99.90
54461;DHT22;40371;49.414;11.010;2022-12-24T14:29:30;11.50;99.90
54461;DHT22;40371;49.414;11.010;2022-12-24T14:31:59;11.40;99.90
54461;DHT22;40371;49.414;11.010;2022-12-24T14:34:28;11.40;99.90
54461;DHT22;40371;49.414;11.010;2022-12-24T14:36:55;11.30;99.90
54461;DHT22;40371;49.414;11.010;2022-12-24T14:39:25;11.30;99.90
54461;DHT22;40371;49.414;11.010;2022-12-24T14:44:39;11.20;99.90
54461;DHT22;40371;49.414;11.010;2022-12-24T14:47:29;11.10;99.90
54461;DHT22;40371;49.414;11.010;2022-12-24T14:52:45;11.00;99.90
54461;DHT22;40371;49.414;11.010;2022-12-24T14:55:35;10.90;99.90
54461;DHT22;40371;49.414;11.010;2022-12-24T15:00:44;10.90;99.90
54461;DHT22;40371;49.414;11.010;2022-12-24T15:03:15;10.80;99.90
54461;DHT22;40371;49.414;11.010;2022-12-24T15:05:42;10.70;99.90
54461;DHT22;40371;49.414;11.010;2022-12-24T15:08:17;10.70;99.90
54461;DHT22;40371;49.414;11.010;2022-12-24T15:10:46;10.60;99.90
54461;DHT22;40371;49.414;11.010;2022-12-24T15:15:56;10.50;99.90
54461;DHT22;40371;49.414;11.010;2022-12-24T15:18:25;10.50;99.90
54461;DHT22;40371;49.414;11.010;2022-12-24T15:20:54;10.40;99.90
54461;DHT22;40371;49.414;11.010;2022-12-24T15:23:30;10.40;99.90
54461;DHT22;40371;49.414;11.010;2022-12-24T15:26:20;10.30;99.90
54461;DHT22;40371;49.414;11.010;2022-12-24T15:28:45;10.30;99.90
54461;DHT22;40371;49.414;11.010;2022-12-24T15:31:13;10.20;99.90
54461;DHT22;40371;49.414;11.010;2022-12-24T15:33:39;10.20;99.90
54461;DHT22;40371;49.414;11.010;2022-12-24T15:36:06;10.10;99.90
54461;DHT22;40371;49.414;11.010;2022-12-24T15:38:35;10.10;99.90
54461;DHT22;40371;49.414;11.010;2022-12-24T15:41:24;10.00;99.90
54461;DHT22;40371;49.414;11.010;2022-12-24T15:43:51;10.00;99.90
54461;DHT22;40371;49.414;11.010;2022-12-24T15:48:44;9.90;99.90
54461;DHT22;40371;49.414;11.010;2022-12-24T15:51:11;9.80;99.90
54461;DHT22;40371;49.414;11.010;2022-12-24T15:53:42;9.80;99.90
54461;DHT22;40371;49.414;11.010;2022-12-24T15:56:26;9.70;99.90
54461;DHT22;40371;49.414;11.010;2022-12-24T16:01:45;9.60;99.90
54461;DHT22;40371;49.414;11.010;2022-12-24T16:04:24;9.60;99.90
54461;DHT22;40371;49.414;11.010;2022-12-24T16:06:57;9.50;99.90
54461;DHT22;40371;49.414;11.010;2022-12-24T16:09:43;9.40;99.90
54461;DHT22;40371;49.414;11.010;2022-12-24T16:12:16;9.40;99.90
54461;DHT22;40371;49.414;11.010;2022-12-24T16:15:00;9.30;99.90
54461;DHT22;40371;49.414;11.010;2022-12-24T16:17:28;9.30;99.90
54461;DHT22;40371;49.414;11.010;2022-12-24T16:19:59;9.30;99.90
54461;DHT22;40371;49.414;11.010;2022-12-24T16:22:27;9.30;99.90
54461;DHT22;40371;49.414;11.010;2022-12-24T16:24:58;9.20;99.90
54461;DHT22;40371;49.414;11.010;2022-12-24T16:27:24;9.20;99.90
54461;DHT22;40371;49.414;11.010;2022-12-24T16:29:50;9.20;99.90
54461;DHT22;40371;49.414;11.010;2022-12-24T16:32:34;9.10;99.90
54461;DHT22;40371;49.414;11.010;2022-12-24T16:35:02;9.00;99.90
54461;DHT22;40371;49.414;11.010;2022-12-24T16:37:27;8.80;99.90
54461;DHT22;40371;49.414;11.010;2022-12-24T16:39:53;8.80;99.90
54461;DHT22;40371;49.414;11.010;2022-12-24T16:42:19;8.70;99.90
54461;DHT22;40371;49.414;11.010;2022-12-24T16:45:04;8.60;99.90
54461;DHT22;40371;49.414;11.010;2022-12-24T16:47:31;8.50;99.90
54461;DHT22;40371;49.414;11.010;2022-12-24T16:49:58;8.50;99.90
54461;DHT22;40371;49.414;11.010;2022-12-24T16:52:26;8.50;99.90
54461;DHT22;40371;49.414;11.010;2022-12-24T16:54:55;8.50;99.90
54461;DHT22;40371;49.414;11.010;2022-12-24T16:57:22;8.40;99.90
54461;DHT22;40371;49.414;11.010;2022-12-24T16:59:49;8.40;99.90
54461;DHT22;40371;49.414;11.010;2022-12-24T17:02:17;8.40;99.90
54461;DHT22;40371;49.414;11.010;2022-12-24T17:04:44;8.40;99.90
54461;DHT22;40371;49.414;11.010;2022-12-24T17:07:11;8.60;99.90
54461;DHT22;40371;49.414;11.010;2022-12-24T17:09:37;8.70;99.90
54461;DHT22;40371;49.414;11.010;2022-12-24T17:12:03;8.80;99.90
54461;DHT22;40371;49.414;11.010;2022-12-24T17:14:29;8.80;99.90
54461;DHT22;40371;49.414;11.010;2022-12-24T17:16:54;8.80;99.90
54461;DHT22;40371;49.414;11.010;2022-12-24T17:19:21;8.90;99.90
54461;DHT22;40371;49.414;11.010;2022-12-24T17:21:46;9.00;99.90
54461;DHT22;40371;49.414;11.010;2022-12-24T17:24:12;9.00;99.90